sensor_id;sensor_type;location;lat;lon;timestamp;temperature;humidity
17442;DHT22;8838;50.144;8.176;2023-10-13T00:01:47;15.80;99.90
17442;DHT22;8838;50.144;8.176;2023-10-13T00:04:14;15.80;99.90
17442;DHT22;8838;50.144;8.176;2023-10-13T00:06:40;15.80;99.90
17442;DHT22;8838;50.144;8.176;2023-10-13T00:09:08;15.80;99.90
17442;DHT22;8838;50.144;8.176;2023-10-13T00:11:41;15.80;99.90
17442;DHT22;8838;50.144;8.176;2023-10-13T00:14:10;15.70;99.90
17442;DHT22;8838;50.144;8.176;2023-10-13T00:16:39;15.60;99.90
17442;DHT22;8838;50.144;8.176;2023-10-13T00:19:08;15.50;99.90
17442;DHT22;8838;50.144;8.176;2023-10-13T00:21:38;15.60;99.90
17442;DHT22;8838;50.144;8.176;2023-10-13T00:24:07;15.50;99.90
17442;DHT22;8838;50.144;8.176;2023-10-13T00:26:39;15.50;99.90
17442;DHT22;8838;50.144;8.176;2023-10-13T00:29:08;15.40;99.90
17442;DHT22;8838;50.144;8.176;2023-10-13T00:31:41;15.40;99.90
17442;DHT22;8838;50.144;8.176;2023-10-13T00:34:10;15.40;99.90
17442;DHT22;8838;50.144;8.176;2023-10-13T00:36:38;15.40;99.90
17442;DHT22;8838;50.144;8.176;2023-10-13T00:39:14;15.40;99.90
17442;DHT22;8838;50.144;8.176;2023-10-13T00:41:42;15.40;99.90
17442;DHT22;8838;50.144;8.176;2023-10-13T00:44:17;15.40;99.90
17442;DHT22;8838;50.144;8.176;2023-10-13T00:46:51;15.40;99.90
17442;DHT22;8838;50.144;8.176;2023-10-13T00:49:22;15.40;99.90
17442;DHT22;8838;50.144;8.176;2023-10-13T00:51:50;15.50;99.90
17442;DHT22;8838;50.144;8.176;2023-10-13T00:54:17;15.50;99.90
17442;DHT22;8838;50.144;8.176;2023-10-13T00:56:52;15.50;99.90
17442;DHT22;8838;50.144;8.176;2023-10-13T00:59:29;15.50;99.90
17442;DHT22;8838;50.144;8.176;2023-10-13T01:01:59;15.50;99.90
17442;DHT22;8838;50.144;8.176;2023-10-13T01:04:47;15.50;99.90
17442;DHT22;8838;50.144;8.176;2023-10-13T01:07:14;15.50;99.90
17442;DHT22;8838;50.144;8.176;2023-10-13T01:09:41;15.60;99.90
17442;DHT22;8838;50.144;8.176;2023-10-13T01:12:08;15.60;99.90
17442;DHT22;8838;50.144;8.176;2023-10-13T01:14:34;15.60;99.90
17442;DHT22;8838;50.144;8.176;2023-10-13T01:17:01;15.50;99.90
17442;DHT22;8838;50.144;8.176;2023-10-13T01:19:35;15.50;99.90
17442;DHT22;8838;50.144;8.176;2023-10-13T01:22:05;15.60;99.90
17442;DHT22;8838;50.144;8.176;2023-10-13T01:24:33;15.60;99.90
17442;DHT22;8838;50.144;8.176;2023-10-13T01:27:00;15.60;99.90
17442;DHT22;8838;50.144;8.176;2023-10-13T01:29:43;15.60;99.90
17442;DHT22;8838;50.144;8.176;2023-10-13T01:32:13;15.60;99.90
17442;DHT22;8838;50.144;8.176;2023-10-13T01:34:39;15.60;99.90
17442;DHT22;8838;50.144;8.176;2023-10-13T01:37:11;15.60;99.90
17442;DHT22;8838;50.144;8.176;2023-10-13T01:39:38;15.60;99.90
17442;DHT22;8838;50.144;8.176;2023-10-13T01:42:05;15.60;99.90
17442;DHT22;8838;50.144;8.176;2023-10-13T01:44:31;15.60;99.90
17442;DHT22;8838;50.144;8.176;2023-10-13T01:46:59;15.60;99.90
17442;DHT22;8838;50.144;8.176;2023-10-13T01:49:31;15.60;99.90
17442;DHT22;8838;50.144;8.176;2023-10-13T01:52:06;15.60;99.90
17442;DHT22;8838;50.144;8.176;2023-10-13T01:54:33;15.50;99.90
17442;DHT22;8838;50.144;8.176;2023-10-13T01:57:02;15.60;99.90
17442;DHT22;8838;50.144;8.176;2023-10-13T01:59:29;15.50;99.90
17442;DHT22;8838;50.144;8.176;2023-10-13T02:01:56;15.50;99.90
17442;DHT22;8838;50.144;8.176;2023-10-13T02:04:26;15.50;99.90
17442;DHT22;8838;50.144;8.176;2023-10-13T02:06:53;15.50;99.90
17442;DHT22;8838;50.144;8.176;2023-10-13T02:09:21;15.50;99.90
17442;DHT22;8838;50.144;8.176;2023-10-13T02:11:52;15.50;99.90
17442;DHT22;8838;50.144;8.176;2023-10-13T02:14:21;15.50;99.90
17442;DHT22;8838;50.144;8.176;2023-10-13T02:16:51;15.50;99.90
17442;DHT22;8838;50.144;8.176;2023-10-13T02:19:17;15.50;99.90
17442;DHT22;8838;50.144;8.176;2023-10-13T02:21:45;15.50;99.90
17442;DHT22;8838;50.144;8.176;2023-10-13T02:24:11;15.50;99.90
17442;DHT22;8838;50.144;8.176;2023-10-13T02:26:44;15.50;99.90
17442;DHT22;8838;50.144;8.176;2023-10-13T02:29:09;15.50;99.90
17442;DHT22;8838;50.144;8.176;2023-10-13T02:31:42;15.50;99.90
17442;DHT22;8838;50.144;8.176;2023-10-13T02:34:08;15.50;99.90
17442;DHT22;8838;50.144;8.176;2023-10-13T02:36:35;15.60;99.90
17442;DHT22;8838;50.144;8.176;2023-10-13T02:39:02;15.60;99.90
17442;DHT22;8838;50.144;8.176;2023-10-13T02:41:33;15.60;99.90
17442;DHT22;8838;50.144;8.176;2023-10-13T02:44:03;15.60;99.90
17442;DHT22;8838;50.144;8.176;2023-10-13T02:46:31;15.60;99.90
17442;DHT22;8838;50.144;8.176;2023-10-13T02:49:02;15.60;99.90
17442;DHT22;8838;50.144;8.176;2023-10-13T02:51:36;15.70;99.90
17442;DHT22;8838;50.144;8.176;2023-10-13T02:54:03;15.60;99.90
17442;DHT22;8838;50.144;8.176;2023-10-13T02:56:35;15.60;99.90
17442;DHT22;8838;50.144;8.176;2023-10-13T02:59:02;15.60;99.90
17442;DHT22;8838;50.144;8.176;2023-10-13T03:01:32;15.60;99.90
17442;DHT22;8838;50.144;8.176;2023-10-13T03:04:02;15.60;99.90
17442;DHT22;8838;50.144;8.176;2023-10-13T03:06:29;15.60;99.90
17442;DHT22;8838;50.144;8.176;2023-10-13T03:08:58;15.60;99.90
17442;DHT22;8838;50.144;8.176;2023-10-13T03:11:39;15.50;99.90
17442;DHT22;8838;50.144;8.176;2023-10-13T03:14:08;15.50;99.90
17442;DHT22;8838;50.144;8.176;2023-10-13T03:16:45;15.50;99.90
17442;DHT22;8838;50.144;8.176;2023-10-13T03:19:12;15.40;99.90
17442;DHT22;8838;50.144;8.176;2023-10-13T03:21:39;15.40;99.90
17442;DHT22;8838;50.144;8.176;2023-10-13T03:24:09;15.40;99.90
17442;DHT22;8838;50.144;8.176;2023-10-13T03:26:39;15.40;99.90
17442;DHT22;8838;50.144;8.176;2023-10-13T03:29:10;15.40;99.90
17442;DHT22;8838;50.144;8.176;2023-10-13T03:31:39;15.40;99.90
17442;DHT22;8838;50.144;8.176;2023-10-13T03:34:05;15.40;99.90
17442;DHT22;8838;50.144;8.176;2023-10-13T03:36:38;15.40;99.90
17442;DHT22;8838;50.144;8.176;2023-10-13T03:39:24;15.40;99.90
17442;DHT22;8838;50.144;8.176;2023-10-13T03:41:57;15.40;99.90
17442;DHT22;8838;50.144;8.176;2023-10-13T03:44:25;15.40;99.90
17442;DHT22;8838;50.144;8.176;2023-10-13T03:46:56;15.40;99.90
17442;DHT22;8838;50.144;8.176;2023-10-13T03:49:23;15.40;99.90
17442;DHT22;8838;50.144;8.176;2023-10-13T03:51:52;15.40;99.90
17442;DHT22;8838;50.144;8.176;2023-10-13T03:54:20;15.40;99.90
17442;DHT22;8838;50.144;8.176;2023-10-13T03:56:47;15.40;99.90
17442;DHT22;8838;50.144;8.176;2023-10-13T03:59:17;15.40;99.90
17442;DHT22;8838;50.144;8.176;2023-10-13T04:01:45;15.40;99.90
17442;DHT22;8838;50.144;8.176;2023-10-13T04:04:13;15.40;99.90
17442;DHT22;8838;50.144;8.176;2023-10-13T04:06:41;15.40;99.90
17442;DHT22;8838;50.144;8.176;2023-10-13T04:09:21;15.40;99.90
17442;DHT22;8838;50.144;8.176;2023-10-13T04:12:07;15.40;99.90
17442;DHT22;8838;50.144;8.176;2023-10-13T04:15:09;15.40;99.90
17442;DHT22;8838;50.144;8.176;2023-10-13T04:17:46;15.40;99.90
17442;DHT22;8838;50.144;8.176;2023-10-13T04:20:14;15.40;99.90
17442;DHT22;8838;50.144;8.176;2023-10-13T04:22:53;15.40;99.90
17442;DHT22;8838;50.144;8.176;2023-10-13T04:25:39;15.50;99.90
17442;DHT22;8838;50.144;8.176;2023-10-13T04:28:18;15.50;99.90
17442;DHT22;8838;50.144;8.176;2023-10-13T04:30:59;15.50;99.90
17442;DHT22;8838;50.144;8.176;2023-10-13T04:33:37;15.50;99.90
17442;DHT22;8838;50.144;8.176;2023-10-13T04:36:16;15.50;99.90
17442;DHT22;8838;50.144;8.176;2023-10-13T04:38:48;15.60;99.90
17442;DHT22;8838;50.144;8.176;2023-10-13T04:41:28;15.60;99.90
17442;DHT22;8838;50.144;8.176;2023-10-13T04:44:03;15.60;99.90
17442;DHT22;8838;50.144;8.176;2023-10-13T04:46:30;15.60;99.90
17442;DHT22;8838;50.144;8.176;2023-10-13T04:49:20;15.60;99.90
17442;DHT22;8838;50.144;8.176;2023-10-13T04:51:54;15.60;99.90
17442;DHT22;8838;50.144;8.176;2023-10-13T04:54:40;15.60;99.90
17442;DHT22;8838;50.144;8.176;2023-10-13T04:57:12;15.60;99.90
17442;DHT22;8838;50.144;8.176;2023-10-13T04:59:57;15.60;99.90
17442;DHT22;8838;50.144;8.176;2023-10-13T05:02:42;15.60;99.90
17442;DHT22;8838;50.144;8.176;2023-10-13T05:05:43;15.60;99.90
17442;DHT22;8838;50.144;8.176;2023-10-13T05:08:36;15.60;99.90
17442;DHT22;8838;50.144;8.176;2023-10-13T05:11:20;15.50;99.90
17442;DHT22;8838;50.144;8.176;2023-10-13T05:14:05;15.50;99.90
17442;DHT22;8838;50.144;8.176;2023-10-13T05:16:49;15.60;99.90
17442;DHT22;8838;50.144;8.176;2023-10-13T05:19:34;15.50;99.90
17442;DHT22;8838;50.144;8.176;2023-10-13T05:22:18;15.50;99.90
17442;DHT22;8838;50.144;8.176;2023-10-13T05:25:02;15.50;99.90
17442;DHT22;8838;50.144;8.176;2023-10-13T05:27:47;15.40;99.90
17442;DHT22;8838;50.144;8.176;2023-10-13T05:30:33;15.40;99.90
17442;DHT22;8838;50.144;8.176;2023-10-13T05:33:17;15.40;99.90
17442;DHT22;8838;50.144;8.176;2023-10-13T05:36:01;15.40;99.90
17442;DHT22;8838;50.144;8.176;2023-10-13T05:38:45;15.40;99.90
17442;DHT22;8838;50.144;8.176;2023-10-13T05:41:29;15.40;99.90
17442;DHT22;8838;50.144;8.176;2023-10-13T05:44:19;15.40;99.90
17442;DHT22;8838;50.144;8.176;2023-10-13T05:47:14;15.30;99.90
17442;DHT22;8838;50.144;8.176;2023-10-13T05:49:57;15.40;99.90
17442;DHT22;8838;50.144;8.176;2023-10-13T05:52:31;15.40;99.90
17442;DHT22;8838;50.144;8.176;2023-10-13T05:55:15;15.40;99.90
17442;DHT22;8838;50.144;8.176;2023-10-13T05:57:59;15.40;99.90
17442;DHT22;8838;50.144;8.176;2023-10-13T06:00:43;15.40;99.90
17442;DHT22;8838;50.144;8.176;2023-10-13T06:03:29;15.40;99.90
17442;DHT22;8838;50.144;8.176;2023-10-13T06:06:13;15.40;99.90
17442;DHT22;8838;50.144;8.176;2023-10-13T06:08:57;15.40;99.90
17442;DHT22;8838;50.144;8.176;2023-10-13T06:11:41;15.40;99.90
17442;DHT22;8838;50.144;8.176;2023-10-13T06:14:25;15.40;99.90
17442;DHT22;8838;50.144;8.176;2023-10-13T06:17:10;15.40;99.90
17442;DHT22;8838;50.144;8.176;2023-10-13T06:19:55;15.40;99.90
17442;DHT22;8838;50.144;8.176;2023-10-13T06:22:39;15.40;99.90
17442;DHT22;8838;50.144;8.176;2023-10-13T06:25:23;15.40;99.90
17442;DHT22;8838;50.144;8.176;2023-10-13T06:28:08;15.40;99.90
17442;DHT22;8838;50.144;8.176;2023-10-13T06:30:58;15.40;99.90
17442;DHT22;8838;50.144;8.176;2023-10-13T06:33:26;15.40;99.90
17442;DHT22;8838;50.144;8.176;2023-10-13T06:35:57;15.50;99.90
17442;DHT22;8838;50.144;8.176;2023-10-13T06:38:24;15.50;99.90
17442;DHT22;8838;50.144;8.176;2023-10-13T06:40:56;15.60;99.90
17442;DHT22;8838;50.144;8.176;2023-10-13T06:43:24;15.60;99.90
17442;DHT22;8838;50.144;8.176;2023-10-13T06:45:50;15.60;99.90
17442;DHT22;8838;50.144;8.176;2023-10-13T06:48:23;15.60;99.90
17442;DHT22;8838;50.144;8.176;2023-10-13T06:50:50;15.70;99.90
17442;DHT22;8838;50.144;8.176;2023-10-13T06:53:20;15.70;99.90
17442;DHT22;8838;50.144;8.176;2023-10-13T06:55:46;15.70;99.90
17442;DHT22;8838;50.144;8.176;2023-10-13T06:58:15;15.80;99.90
17442;DHT22;8838;50.144;8.176;2023-10-13T07:00:43;15.80;99.90
17442;DHT22;8838;50.144;8.176;2023-10-13T07:03:18;15.90;99.90
17442;DHT22;8838;50.144;8.176;2023-10-13T07:05:45;15.90;99.90
17442;DHT22;8838;50.144;8.176;2023-10-13T07:08:15;16.00;99.90
17442;DHT22;8838;50.144;8.176;2023-10-13T07:10:50;16.00;99.90
17442;DHT22;8838;50.144;8.176;2023-10-13T07:13:27;16.10;99.90
17442;DHT22;8838;50.144;8.176;2023-10-13T07:15:54;16.20;99.90
17442;DHT22;8838;50.144;8.176;2023-10-13T07:18:27;16.30;99.90
17442;DHT22;8838;50.144;8.176;2023-10-13T07:21:01;16.30;99.90
17442;DHT22;8838;50.144;8.176;2023-10-13T07:23:35;16.50;99.90
17442;DHT22;8838;50.144;8.176;2023-10-13T07:26:05;16.60;99.90
17442;DHT22;8838;50.144;8.176;2023-10-13T07:28:34;16.70;99.90
17442;DHT22;8838;50.144;8.176;2023-10-13T07:31:02;16.80;99.90
17442;DHT22;8838;50.144;8.176;2023-10-13T07:33:38;16.80;99.90
17442;DHT22;8838;50.144;8.176;2023-10-13T07:36:08;16.80;99.90
17442;DHT22;8838;50.144;8.176;2023-10-13T07:38:41;16.90;99.90
17442;DHT22;8838;50.144;8.176;2023-10-13T07:41:10;16.90;99.90
17442;DHT22;8838;50.144;8.176;2023-10-13T07:43:41;16.90;99.90
17442;DHT22;8838;50.144;8.176;2023-10-13T07:46:11;17.00;99.90
17442;DHT22;8838;50.144;8.176;2023-10-13T07:48:38;17.00;99.90
17442;DHT22;8838;50.144;8.176;2023-10-13T07:51:08;16.90;99.90
17442;DHT22;8838;50.144;8.176;2023-10-13T07:53:36;16.90;99.90
17442;DHT22;8838;50.144;8.176;2023-10-13T07:56:06;16.90;99.90
17442;DHT22;8838;50.144;8.176;2023-10-13T07:58:35;16.90;99.90
17442;DHT22;8838;50.144;8.176;2023-10-13T08:01:13;16.90;99.90
17442;DHT22;8838;50.144;8.176;2023-10-13T08:03:44;17.00;99.90
17442;DHT22;8838;50.144;8.176;2023-10-13T08:06:12;17.00;99.90
17442;DHT22;8838;50.144;8.176;2023-10-13T08:08:47;17.10;99.90
17442;DHT22;8838;50.144;8.176;2023-10-13T08:11:19;17.10;99.90
17442;DHT22;8838;50.144;8.176;2023-10-13T08:13:58;17.30;99.90
17442;DHT22;8838;50.144;8.176;2023-10-13T08:16:26;17.30;99.90
17442;DHT22;8838;50.144;8.176;2023-10-13T08:19:11;17.40;99.90
17442;DHT22;8838;50.144;8.176;2023-10-13T08:21:40;17.40;99.90
17442;DHT22;8838;50.144;8.176;2023-10-13T08:24:15;17.40;99.90
17442;DHT22;8838;50.144;8.176;2023-10-13T08:26:51;17.40;99.90
17442;DHT22;8838;50.144;8.176;2023-10-13T08:29:24;17.40;99.90
17442;DHT22;8838;50.144;8.176;2023-10-13T08:32:14;17.50;99.90
17442;DHT22;8838;50.144;8.176;2023-10-13T08:34:49;17.70;99.90
17442;DHT22;8838;50.144;8.176;2023-10-13T08:37:30;17.90;99.90
17442;DHT22;8838;50.144;8.176;2023-10-13T08:40:12;17.90;99.90
17442;DHT22;8838;50.144;8.176;2023-10-13T08:43:10;17.80;99.90
17442;DHT22;8838;50.144;8.176;2023-10-13T08:45:39;17.70;99.90
17442;DHT22;8838;50.144;8.176;2023-10-13T08:48:26;17.60;99.90
17442;DHT22;8838;50.144;8.176;2023-10-13T08:50:58;17.50;99.90
17442;DHT22;8838;50.144;8.176;2023-10-13T08:53:35;17.40;99.90
17442;DHT22;8838;50.144;8.176;2023-10-13T08:56:11;17.40;99.90
17442;DHT22;8838;50.144;8.176;2023-10-13T08:58:43;17.40;99.90
17442;DHT22;8838;50.144;8.176;2023-10-13T09:01:34;17.80;99.90
17442;DHT22;8838;50.144;8.176;2023-10-13T09:04:06;18.60;99.90
17442;DHT22;8838;50.144;8.176;2023-10-13T09:06:49;19.00;99.90
17442;DHT22;8838;50.144;8.176;2023-10-13T09:09:29;19.60;99.90
17442;DHT22;8838;50.144;8.176;2023-10-13T09:12:01;20.60;99.90
17442;DHT22;8838;50.144;8.176;2023-10-13T09:14:35;21.50;99.90
17442;DHT22;8838;50.144;8.176;2023-10-13T09:17:06;21.90;99.90
17442;DHT22;8838;50.144;8.176;2023-10-13T09:20:01;22.10;99.90
17442;DHT22;8838;50.144;8.176;2023-10-13T09:22:50;22.20;99.90
17442;DHT22;8838;50.144;8.176;2023-10-13T09:25:22;22.00;99.90
17442;DHT22;8838;50.144;8.176;2023-10-13T09:27:49;21.80;99.90
17442;DHT22;8838;50.144;8.176;2023-10-13T09:30:19;21.90;99.90
17442;DHT22;8838;50.144;8.176;2023-10-13T09:32:59;21.80;99.90
17442;DHT22;8838;50.144;8.176;2023-10-13T09:35:28;21.70;99.90
17442;DHT22;8838;50.144;8.176;2023-10-13T09:37:54;22.00;99.90
17442;DHT22;8838;50.144;8.176;2023-10-13T09:40:22;22.70;99.90
17442;DHT22;8838;50.144;8.176;2023-10-13T09:42:53;23.50;99.90
17442;DHT22;8838;50.144;8.176;2023-10-13T09:45:27;24.40;99.90
17442;DHT22;8838;50.144;8.176;2023-10-13T09:47:59;24.30;99.90
17442;DHT22;8838;50.144;8.176;2023-10-13T09:50:37;24.10;99.90
17442;DHT22;8838;50.144;8.176;2023-10-13T09:53:05;23.90;99.90
17442;DHT22;8838;50.144;8.176;2023-10-13T09:55:38;23.50;99.90
17442;DHT22;8838;50.144;8.176;2023-10-13T09:58:11;23.00;99.90
17442;DHT22;8838;50.144;8.176;2023-10-13T10:00:43;22.40;99.90
17442;DHT22;8838;50.144;8.176;2023-10-13T10:03:22;22.50;99.90
17442;DHT22;8838;50.144;8.176;2023-10-13T10:06:08;22.80;99.90
17442;DHT22;8838;50.144;8.176;2023-10-13T10:08:39;22.90;99.90
17442;DHT22;8838;50.144;8.176;2023-10-13T10:11:34;22.30;99.90
17442;DHT22;8838;50.144;8.176;2023-10-13T10:14:15;22.20;99.90
17442;DHT22;8838;50.144;8.176;2023-10-13T10:16:53;22.40;99.90
17442;DHT22;8838;50.144;8.176;2023-10-13T10:19:26;22.40;99.90
17442;DHT22;8838;50.144;8.176;2023-10-13T10:22:01;21.90;99.90
17442;DHT22;8838;50.144;8.176;2023-10-13T10:24:31;22.00;99.90
17442;DHT22;8838;50.144;8.176;2023-10-13T10:27:02;22.20;99.90
17442;DHT22;8838;50.144;8.176;2023-10-13T10:29:30;22.10;99.90
17442;DHT22;8838;50.144;8.176;2023-10-13T10:31:58;21.50;99.90
17442;DHT22;8838;50.144;8.176;2023-10-13T10:34:31;21.40;99.90
17442;DHT22;8838;50.144;8.176;2023-10-13T10:36:59;21.30;99.90
17442;DHT22;8838;50.144;8.176;2023-10-13T10:39:33;21.10;99.90
17442;DHT22;8838;50.144;8.176;2023-10-13T10:42:11;21.00;99.90
17442;DHT22;8838;50.144;8.176;2023-10-13T10:44:43;20.90;99.90
17442;DHT22;8838;50.144;8.176;2023-10-13T10:47:10;20.70;99.90
17442;DHT22;8838;50.144;8.176;2023-10-13T10:49:39;20.60;99.90
17442;DHT22;8838;50.144;8.176;2023-10-13T10:52:09;20.70;99.90
17442;DHT22;8838;50.144;8.176;2023-10-13T10:54:43;21.10;99.90
17442;DHT22;8838;50.144;8.176;2023-10-13T10:57:17;21.50;99.90
17442;DHT22;8838;50.144;8.176;2023-10-13T10:59:44;21.80;99.90
17442;DHT22;8838;50.144;8.176;2023-10-13T11:02:11;21.70;99.90
17442;DHT22;8838;50.144;8.176;2023-10-13T11:04:42;21.60;99.90
17442;DHT22;8838;50.144;8.176;2023-10-13T11:07:21;21.50;99.90
17442;DHT22;8838;50.144;8.176;2023-10-13T11:09:49;21.30;99.90
17442;DHT22;8838;50.144;8.176;2023-10-13T11:12:18;21.20;99.90
17442;DHT22;8838;50.144;8.176;2023-10-13T11:15:00;21.20;99.90
17442;DHT22;8838;50.144;8.176;2023-10-13T11:17:27;21.20;99.90
17442;DHT22;8838;50.144;8.176;2023-10-13T11:20:10;21.20;99.90
17442;DHT22;8838;50.144;8.176;2023-10-13T11:22:45;21.40;99.90
17442;DHT22;8838;50.144;8.176;2023-10-13T11:25:21;21.50;99.90
17442;DHT22;8838;50.144;8.176;2023-10-13T11:27:49;21.50;99.90
17442;DHT22;8838;50.144;8.176;2023-10-13T11:30:23;21.50;99.90
17442;DHT22;8838;50.144;8.176;2023-10-13T11:32:57;21.30;99.90
17442;DHT22;8838;50.144;8.176;2023-10-13T11:35:25;21.30;99.90
17442;DHT22;8838;50.144;8.176;2023-10-13T11:37:55;21.50;99.90
17442;DHT22;8838;50.144;8.176;2023-10-13T11:40:37;21.70;99.90
17442;DHT22;8838;50.144;8.176;2023-10-13T11:43:09;21.60;99.90
17442;DHT22;8838;50.144;8.176;2023-10-13T11:45:39;21.90;99.90
17442;DHT22;8838;50.144;8.176;2023-10-13T11:48:18;22.00;99.90
17442;DHT22;8838;50.144;8.176;2023-10-13T11:50:56;21.80;99.90
17442;DHT22;8838;50.144;8.176;2023-10-13T11:53:23;21.50;99.90
17442;DHT22;8838;50.144;8.176;2023-10-13T11:55:53;21.40;99.90
17442;DHT22;8838;50.144;8.176;2023-10-13T11:58:20;21.40;99.90
17442;DHT22;8838;50.144;8.176;2023-10-13T12:00:47;21.30;99.90
17442;DHT22;8838;50.144;8.176;2023-10-13T12:03:34;21.30;99.90
17442;DHT22;8838;50.144;8.176;2023-10-13T12:06:20;21.30;99.90
17442;DHT22;8838;50.144;8.176;2023-10-13T12:08:58;21.20;99.90
17442;DHT22;8838;50.144;8.176;2023-10-13T12:11:38;21.30;99.90
17442;DHT22;8838;50.144;8.176;2023-10-13T12:14:07;21.30;99.90
17442;DHT22;8838;50.144;8.176;2023-10-13T12:16:45;21.40;99.90
17442;DHT22;8838;50.144;8.176;2023-10-13T12:19:15;21.40;99.90
17442;DHT22;8838;50.144;8.176;2023-10-13T12:21:43;21.40;99.90
17442;DHT22;8838;50.144;8.176;2023-10-13T12:24:10;21.30;99.90
17442;DHT22;8838;50.144;8.176;2023-10-13T12:26:46;21.30;99.90
17442;DHT22;8838;50.144;8.176;2023-10-13T12:29:13;21.30;99.90
17442;DHT22;8838;50.144;8.176;2023-10-13T12:31:48;21.30;99.90
17442;DHT22;8838;50.144;8.176;2023-10-13T12:34:31;21.40;99.90
17442;DHT22;8838;50.144;8.176;2023-10-13T12:37:19;21.40;99.90
17442;DHT22;8838;50.144;8.176;2023-10-13T12:40:04;21.40;99.90
17442;DHT22;8838;50.144;8.176;2023-10-13T12:42:49;21.50;99.90
17442;DHT22;8838;50.144;8.176;2023-10-13T12:45:33;21.50;99.90
17442;DHT22;8838;50.144;8.176;2023-10-13T12:48:22;21.60;99.90
17442;DHT22;8838;50.144;8.176;2023-10-13T12:51:06;21.60;99.90
17442;DHT22;8838;50.144;8.176;2023-10-13T12:53:47;21.50;99.90
17442;DHT22;8838;50.144;8.176;2023-10-13T12:56:14;21.60;99.90
17442;DHT22;8838;50.144;8.176;2023-10-13T12:58:42;21.70;99.90
17442;DHT22;8838;50.144;8.176;2023-10-13T13:01:17;21.80;99.90
17442;DHT22;8838;50.144;8.176;2023-10-13T13:03:46;21.90;99.90
17442;DHT22;8838;50.144;8.176;2023-10-13T13:06:16;22.00;99.90
17442;DHT22;8838;50.144;8.176;2023-10-13T13:08:51;22.00;99.90
17442;DHT22;8838;50.144;8.176;2023-10-13T13:11:18;21.90;99.90
17442;DHT22;8838;50.144;8.176;2023-10-13T13:13:46;21.90;99.90
17442;DHT22;8838;50.144;8.176;2023-10-13T13:16:12;21.80;99.90
17442;DHT22;8838;50.144;8.176;2023-10-13T13:18:40;21.80;99.90
17442;DHT22;8838;50.144;8.176;2023-10-13T13:21:08;21.80;99.90
17442;DHT22;8838;50.144;8.176;2023-10-13T13:23:37;21.80;99.90
17442;DHT22;8838;50.144;8.176;2023-10-13T13:26:06;21.90;99.90
17442;DHT22;8838;50.144;8.176;2023-10-13T13:28:41;22.10;99.90
17442;DHT22;8838;50.144;8.176;2023-10-13T13:31:08;22.50;99.90
17442;DHT22;8838;50.144;8.176;2023-10-13T13:33:37;22.90;99.90
17442;DHT22;8838;50.144;8.176;2023-10-13T13:36:08;23.00;99.90
17442;DHT22;8838;50.144;8.176;2023-10-13T13:38:39;22.90;99.90
17442;DHT22;8838;50.144;8.176;2023-10-13T13:41:11;23.00;99.90
17442;DHT22;8838;50.144;8.176;2023-10-13T13:43:41;23.10;99.90
17442;DHT22;8838;50.144;8.176;2023-10-13T13:46:20;23.40;99.90
17442;DHT22;8838;50.144;8.176;2023-10-13T13:48:51;23.70;99.90
17442;DHT22;8838;50.144;8.176;2023-10-13T13:51:23;23.90;99.90
17442;DHT22;8838;50.144;8.176;2023-10-13T13:53:53;24.00;99.90
17442;DHT22;8838;50.144;8.176;2023-10-13T13:56:22;23.90;99.90
17442;DHT22;8838;50.144;8.176;2023-10-13T13:58:51;23.90;99.90
17442;DHT22;8838;50.144;8.176;2023-10-13T14:01:19;24.00;99.90
17442;DHT22;8838;50.144;8.176;2023-10-13T14:03:49;24.10;99.90
17442;DHT22;8838;50.144;8.176;2023-10-13T14:06:17;24.10;99.90
17442;DHT22;8838;50.144;8.176;2023-10-13T14:08:47;24.10;99.90
17442;DHT22;8838;50.144;8.176;2023-10-13T14:11:16;24.20;99.90
17442;DHT22;8838;50.144;8.176;2023-10-13T14:13:49;24.30;99.90
17442;DHT22;8838;50.144;8.176;2023-10-13T14:16:21;24.50;99.90
17442;DHT22;8838;50.144;8.176;2023-10-13T14:18:49;24.60;99.90
17442;DHT22;8838;50.144;8.176;2023-10-13T14:21:17;24.80;99.90
17442;DHT22;8838;50.144;8.176;2023-10-13T14:23:44;24.80;99.90
17442;DHT22;8838;50.144;8.176;2023-10-13T14:26:13;24.90;99.90
17442;DHT22;8838;50.144;8.176;2023-10-13T14:28:39;24.90;99.90
17442;DHT22;8838;50.144;8.176;2023-10-13T14:31:17;24.70;99.90
17442;DHT22;8838;50.144;8.176;2023-10-13T14:33:46;24.50;99.90
17442;DHT22;8838;50.144;8.176;2023-10-13T14:36:13;24.60;99.90
17442;DHT22;8838;50.144;8.176;2023-10-13T14:38:42;24.70;99.90
17442;DHT22;8838;50.144;8.176;2023-10-13T14:41:13;24.70;99.90
17442;DHT22;8838;50.144;8.176;2023-10-13T14:43:40;24.80;99.90
17442;DHT22;8838;50.144;8.176;2023-10-13T14:46:13;24.80;99.90
17442;DHT22;8838;50.144;8.176;2023-10-13T14:48:41;24.70;99.90
17442;DHT22;8838;50.144;8.176;2023-10-13T14:51:09;24.70;99.90
17442;DHT22;8838;50.144;8.176;2023-10-13T14:53:39;24.70;99.90
17442;DHT22;8838;50.144;8.176;2023-10-13T14:56:09;24.60;99.90
17442;DHT22;8838;50.144;8.176;2023-10-13T14:58:36;24.50;99.90
17442;DHT22;8838;50.144;8.176;2023-10-13T15:01:11;24.40;99.90
17442;DHT22;8838;50.144;8.176;2023-10-13T15:03:40;24.20;99.90
17442;DHT22;8838;50.144;8.176;2023-10-13T15:06:07;23.90;99.90
17442;DHT22;8838;50.144;8.176;2023-10-13T15:08:34;23.80;99.90
17442;DHT22;8838;50.144;8.176;2023-10-13T15:11:08;23.50;99.90
17442;DHT22;8838;50.144;8.176;2023-10-13T15:13:38;23.30;99.90
17442;DHT22;8838;50.144;8.176;2023-10-13T15:16:13;23.10;99.90
17442;DHT22;8838;50.144;8.176;2023-10-13T15:18:41;22.90;99.90
17442;DHT22;8838;50.144;8.176;2023-10-13T15:21:08;22.80;99.90
17442;DHT22;8838;50.144;8.176;2023-10-13T15:23:35;22.70;99.90
17442;DHT22;8838;50.144;8.176;2023-10-13T15:26:07;22.60;99.90
17442;DHT22;8838;50.144;8.176;2023-10-13T15:28:36;22.50;99.90
17442;DHT22;8838;50.144;8.176;2023-10-13T15:31:11;22.40;99.90
17442;DHT22;8838;50.144;8.176;2023-10-13T15:33:50;22.40;99.90
17442;DHT22;8838;50.144;8.176;2023-10-13T15:36:20;22.30;99.90
17442;DHT22;8838;50.144;8.176;2023-10-13T15:38:47;22.30;99.90
17442;DHT22;8838;50.144;8.176;2023-10-13T15:41:21;22.20;99.90
17442;DHT22;8838;50.144;8.176;2023-10-13T15:43:48;22.10;99.90
17442;DHT22;8838;50.144;8.176;2023-10-13T15:46:18;22.10;99.90
17442;DHT22;8838;50.144;8.176;2023-10-13T15:48:46;22.00;99.90
17442;DHT22;8838;50.144;8.176;2023-10-13T15:51:14;22.00;99.90
17442;DHT22;8838;50.144;8.176;2023-10-13T15:53:42;22.00;99.90
17442;DHT22;8838;50.144;8.176;2023-10-13T15:56:10;22.00;99.90
17442;DHT22;8838;50.144;8.176;2023-10-13T15:58:37;21.90;99.90
17442;DHT22;8838;50.144;8.176;2023-10-13T16:01:04;21.90;99.90
17442;DHT22;8838;50.144;8.176;2023-10-13T16:03:33;21.80;99.90
17442;DHT22;8838;50.144;8.176;2023-10-13T16:06:02;21.80;99.90
17442;DHT22;8838;50.144;8.176;2023-10-13T16:08:36;21.80;99.90
17442;DHT22;8838;50.144;8.176;2023-10-13T16:11:06;21.80;99.90
17442;DHT22;8838;50.144;8.176;2023-10-13T16:13:34;21.70;99.90
17442;DHT22;8838;50.144;8.176;2023-10-13T16:16:02;21.70;99.90
17442;DHT22;8838;50.144;8.176;2023-10-13T16:18:29;21.60;99.90
17442;DHT22;8838;50.144;8.176;2023-10-13T16:20:59;21.60;99.90
17442;DHT22;8838;50.144;8.176;2023-10-13T16:23:29;21.60;99.90